CheckWX is a tool to help pilots better visualize weather data.  It is not intended as a substitute for an official pre-flight weather briefing.

17:35:22 UTC

DTTZ TAF
Tozeur Nefta International Airport
Tozeur, Tunisia
TAF DTTZ 271700Z 2718/2818 10018KT 9999 FEW033 PROB30 TEMPO 2718/2724 09019G29KT 4000 SA BECMG 2800/2802 09012KT

May-27@
18:00 UTC

May-27 @ 18:00 UTC

May-28@
00:00 UTC

May-28 @ 00:00 UTC

TAF DTTZ 271700Z 2718/2818 10018KT 9999 FEW033

Expired

Wind
  • 100° at 18 KTS
Cloud Levels
  • Few at 3,300' AGL

May-27@
18:00 UTC

May-27 @ 18:00 UTC

May-28@
00:00 UTC

May-28 @ 00:00 UTC

PROB30 TEMPO 2718/2724 09019G29KT 4000 SA

Expired

Wind
  • 090° at 19 KTS
  • {Gusting to 29 KTS
Conditions
Sand
Cloud Levels

May-28@
00:00 UTC

May-28 @ 00:00 UTC

May-28@
18:00 UTC

May-28 @ 18:00 UTC

BECMG 2800/2802 09012KT

Becoming

Becoming Conditions expected by Thu, May 28, 2020 @ 02:00 UTC

Wind
  • 090° at 12 KTS
Cloud Levels
  • Few at 3,300' AGL